weather.gov     
National Weather Service

Terminal Aerodrome Forecast
NWS Homepage
This page is being discontinued on March 12, 2014.
The same data is available at this site. Please update your bookmarks.
Thank you, and we apologize for the inconvenience.
Please send an email to SR-SRH.Webmaster@noaa.gov with any concerns.


Current Version
Previous Version:    01  02  03  04  05  06  07  08  09  10  11  12  13  14  15  16  17  18  19  20  21  22  23  24  25  26  27  28  29  30  
   31  32  33  
[Printable]
858
FTUS45 KGJT 212339
TAFGJT
TAF
KGJT 212339Z 2200/2224 29015G25KT P6SM VCTS SCT060 BKN090CB
      TEMPO 2200/2202 VRB20G30KT 3SM SHRA BR SCT040 BKN060
     FM220200 14012G25KT P6SM VCTS SCT050CB BKN100
     FM220600 08011KT P6SM VCSH SCT040 BKN080
     FM221200 11008KT P6SM BKN200
     FM221900 23008KT P6SM SCT090 SCT200=


858
FTUS45 KGJT 212339
TAFGJT
TAF
KGJT 212339Z 2200/2224 29015G25KT P6SM VCTS SCT060 BKN090CB
      TEMPO 2200/2202 VRB20G30KT 3SM SHRA BR SCT040 BKN060
     FM220200 14012G25KT P6SM VCTS SCT050CB BKN100
     FM220600 08011KT P6SM VCSH SCT040 BKN080
     FM221200 11008KT P6SM BKN200
     FM221900 23008KT P6SM SCT090 SCT200=




U.S. Dept. of Commerce
NOAA National Weather Service
1325 East West Highway
Silver Spring, MD 20910
E-mail: w-nws.webmaster@noaa.gov
Page last modified: May 16, 2007
NATIONAL WEATHER SERVICE: for Safety, for Work, for Fun - FOR LIFE